Time;durP1;ratioP1;P1;durP2;ratioP2;P2;SDS_P1;SDS_P2;PMS_P1;PMS_P2;Temp;Humidity;BMP_temperature;BMP_pressure;BME280_temperature;BME280_humidity;BME280_pressure;Samples;Min_cycle;Max_cycle;Signal;HPM_P1;HPM_P2
2022/03/13 00:00:23;;;;;;;51.95;25.43;;;;;;;-0.20;54.79;95246.08;1702140;83;21556;-51
2022/03/13 00:02:52;;;;;;;55.60;24.63;;;;;;;-0.20;54.94;95250.89;1698287;83;21517;-51
2022/03/13 00:05:19;;;;;;;46.18;21.90;;;;;;;-0.09;54.83;95252.37;1700586;84;20994;-50
2022/03/13 00:07:48;;;;;;;79.47;35.60;;;;;;;-0.04;54.90;95248.02;1699691;83;20989;-51
2022/03/13 00:10:19;;;;;;;69.55;34.10;;;;;;;0.10;55.24;95247.61;1701947;83;21138;-49
2022/03/13 00:12:48;;;;;;;46.10;22.87;;;;;;;0.27;55.23;95243.78;1699612;83;21074;-52
2022/03/13 00:15:17;;;;;;;49.27;24.20;;;;;;;0.36;54.41;95249.66;1697908;84;21711;-51
2022/03/13 00:17:45;;;;;;;49.83;24.02;;;;;;;0.38;53.98;95243.30;1700334;84;21021;-50
2022/03/13 00:20:12;;;;;;;49.18;25.60;;;;;;;0.36;53.78;95242.90;1702010;84;21018;-51
2022/03/13 00:22:41;;;;;;;62.38;28.75;;;;;;;0.29;53.83;95243.39;1701781;84;21379;-49
2022/03/13 00:25:10;;;;;;;64.87;32.23;;;;;;;0.24;53.83;95239.08;1700463;83;21037;-50
2022/03/13 00:27:39;;;;;;;81.10;35.63;;;;;;;0.18;54.08;95252.73;1699194;83;21025;-51
2022/03/13 00:30:08;;;;;;;56.15;26.37;;;;;;;0.17;54.41;95243.07;1698551;84;21101;-51
2022/03/13 00:32:35;;;;;;;61.10;28.42;;;;;;;0.25;54.22;95242.58;1699557;83;21660;-51
2022/03/13 00:35:05;;;;;;;69.82;31.07;;;;;;;0.23;54.38;95236.17;1700285;83;22539;-51
2022/03/13 00:37:32;;;;;;;94.20;45.23;;;;;;;0.23;54.56;95229.41;1700186;83;21125;-52
2022/03/13 00:40:01;;;;;;;87.82;43.23;;;;;;;0.25;54.97;95233.88;1698403;84;21533;-52
2022/03/13 00:42:28;;;;;;;45.43;24.12;;;;;;;0.27;55.41;95230.25;1699962;84;21049;-51
2022/03/13 00:44:56;;;;;;;47.65;26.33;;;;;;;0.22;54.57;95225.15;1699534;83;21070;-51
2022/03/13 00:47:23;;;;;;;54.70;26.82;;;;;;;0.08;54.41;95230.39;1701368;83;21214;-50
2022/03/13 00:49:50;;;;;;;51.58;25.17;;;;;;;0.06;54.48;95224.58;1699388;83;21073;-51
2022/03/13 00:52:18;;;;;;;52.10;24.72;;;;;;;0.09;54.71;95227.13;1700428;83;21018;-50
2022/03/13 00:54:46;;;;;;;52.90;25.52;;;;;;;0.13;54.43;95215.20;1700203;83;21080;-51
2022/03/13 00:57:13;;;;;;;93.35;41.58;;;;;;;0.15;54.35;95210.77;1699676;83;21002;-50
2022/03/13 00:59:42;;;;;;;81.75;35.60;;;;;;;0.19;54.79;95208.91;1701357;83;21081;-50
2022/03/13 01:02:10;;;;;;;56.68;26.35;;;;;;;0.22;54.95;95206.21;1699838;83;20934;-51
2022/03/13 01:04:39;;;;;;;76.28;33.40;;;;;;;0.23;55.04;95204.30;1700976;84;21093;-52
2022/03/13 01:07:06;;;;;;;83.52;37.73;;;;;;;0.19;55.40;95193.44;1701875;83;20993;-51
2022/03/13 01:09:34;;;;;;;92.45;43.23;;;;;;;0.16;55.78;95199.59;1699517;84;21128;-51
2022/03/13 01:12:02;;;;;;;85.57;38.95;;;;;;;0.15;55.97;95196.68;1702025;84;21181;-50
2022/03/13 01:14:32;;;;;;;80.15;38.78;;;;;;;0.22;55.88;95189.98;1700092;83;21018;-51
2022/03/13 01:17:04;;;;;;;65.52;34.78;;;;;;;0.24;55.58;95193.09;1699102;83;20959;-51
2022/03/13 01:19:31;;;;;;;77.67;37.25;;;;;;;0.26;55.83;95190.80;1699144;84;21082;-52
2022/03/13 01:21:59;;;;;;;64.58;32.90;;;;;;;0.34;55.88;95192.44;1701429;83;21117;-52
2022/03/13 01:24:35;;;;;;;73.65;35.95;;;;;;;0.31;56.14;95201.30;1700731;83;21128;-51
2022/03/13 01:27:03;;;;;;;74.00;33.18;;;;;;;0.29;56.38;95193.34;1700321;83;21192;-50
2022/03/13 01:29:32;;;;;;;51.23;23.70;;;;;;;0.32;56.13;95189.89;1699753;84;21017;-51
2022/03/13 01:32:00;;;;;;;48.98;22.93;;;;;;;0.30;55.49;95196.25;1700926;84;20994;-52
2022/03/13 01:34:38;;;;;;;38.25;20.90;;;;;;;0.25;54.97;95187.12;1700759;84;21080;-51
2022/03/13 01:37:20;;;;;;;37.65;18.65;;;;;;;0.24;54.91;95186.33;1701459;83;21172;-51
2022/03/13 01:39:48;;;;;;;68.80;36.10;;;;;;;0.29;54.65;95183.87;1699468;84;20963;-52
2022/03/13 01:42:15;;;;;;;65.20;34.30;;;;;;;0.18;54.65;95189.17;1701129;83;21065;-52
2022/03/13 01:44:43;;;;;;;73.07;30.57;;;;;;;0.17;55.18;95193.59;1701804;83;21078;-51
2022/03/13 01:47:10;;;;;;;74.05;33.25;;;;;;;0.21;55.69;95192.48;1699360;84;20966;-51
2022/03/13 01:49:39;;;;;;;94.55;38.15;;;;;;;0.37;55.68;95188.98;1699928;84;21259;-53
2022/03/13 01:52:06;;;;;;;98.17;39.88;;;;;;;0.54;55.34;95183.53;1699643;83;21076;-52
2022/03/13 01:54:33;;;;;;;48.87;23.50;;;;;;;0.58;55.36;95186.48;1701180;84;20965;-51
2022/03/13 01:57:02;;;;;;;32.53;17.57;;;;;;;0.63;54.57;95180.72;1701014;84;20974;-51
2022/03/13 01:59:30;;;;;;;29.72;18.02;;;;;;;0.52;53.99;95180.42;1701287;83;21025;-51
2022/03/13 02:01:58;;;;;;;46.83;22.93;;;;;;;0.36;54.00;95180.67;1701405;84;21165;-51
2022/03/13 02:04:32;;;;;;;57.53;29.52;;;;;;;0.32;54.61;95181.21;1701903;84;21104;-52
2022/03/13 02:06:59;;;;;;;51.13;25.48;;;;;;;0.38;55.29;95178.36;1699520;84;21042;-52
2022/03/13 02:09:27;;;;;;;43.55;24.30;;;;;;;0.50;55.62;95183.52;1701100;83;21010;-51
2022/03/13 02:11:59;;;;;;;56.42;25.20;;;;;;;0.62;55.41;95183.22;1698895;84;21128;-51
2022/03/13 02:14:26;;;;;;;48.50;26.52;;;;;;;0.65;55.13;95185.20;1700466;84;21170;-51
2022/03/13 02:16:54;;;;;;;28.55;14.30;;;;;;;0.62;54.64;95185.93;1700972;83;21470;-51
2022/03/13 02:19:21;;;;;;;24.50;14.20;;;;;;;0.56;54.08;95190.73;1701932;83;20970;-52
2022/03/13 02:21:53;;;;;;;22.48;13.45;;;;;;;0.45;53.98;95185.19;1701794;83;20975;-51
2022/03/13 02:24:24;;;;;;;24.72;13.98;;;;;;;0.34;53.94;95187.03;1701296;83;21001;-50
2022/03/13 02:27:03;;;;;;;41.30;20.97;;;;;;;0.23;54.60;95190.19;1701978;83;21796;-52
2022/03/13 02:29:33;;;;;;;56.00;27.60;;;;;;;0.24;55.24;95189.63;1701933;83;21513;-51
2022/03/13 02:32:01;;;;;;;52.85;27.13;;;;;;;0.31;55.55;95187.78;1699831;84;21581;-50
2022/03/13 02:34:28;;;;;;;44.58;23.98;;;;;;;0.35;55.47;95192.64;1702258;84;21482;-52
2022/03/13 02:37:01;;;;;;;30.43;16.77;;;;;;;0.43;55.54;95185.38;1701911;84;21179;-50
2022/03/13 02:39:32;;;;;;;28.42;16.50;;;;;;;0.32;54.69;95192.03;1696644;82;21143;-50
2022/03/13 02:42:00;;;;;;;34.50;17.07;;;;;;;0.16;54.83;95192.83;1684769;84;20973;-52
2022/03/13 02:44:28;;;;;;;46.08;19.70;;;;;;;0.11;54.94;95186.41;1679156;84;21101;-50
2022/03/13 02:46:59;;;;;;;37.10;18.23;;;;;;;0.09;55.27;95179.80;1683721;84;21069;-51
2022/03/13 02:49:28;;;;;;;30.05;15.00;;;;;;;0.01;55.38;95184.94;1689696;83;21127;-51
2022/03/13 02:52:01;;;;;;;56.23;26.82;;;;;;;-0.05;55.36;95189.69;1696966;84;21036;-51
2022/03/13 02:54:28;;;;;;;71.65;32.85;;;;;;;-0.09;55.68;95179.38;1687068;84;21592;-51
2022/03/13 02:56:58;;;;;;;78.78;39.80;;;;;;;-0.09;56.34;95184.22;1694220;84;21017;-50
2022/03/13 02:59:25;;;;;;;88.62;41.88;;;;;;;0.02;56.51;95181.84;1692818;84;21535;-51
2022/03/13 03:01:53;;;;;;;90.22;41.05;;;;;;;0.09;56.76;95182.50;1684344;83;21453;-51
2022/03/13 03:04:24;;;;;;;68.20;33.40;;;;;;;0.20;56.77;95176.64;1686420;84;21156;-51
2022/03/13 03:06:57;;;;;;;31.35;18.00;;;;;;;0.34;56.29;95173.50;1691594;83;20982;-50
2022/03/13 03:09:24;;;;;;;;;;;;;;;0.36;55.57;95175.25;1683224;84;20977;-50
2022/03/13 03:11:52;;;;;;;34.78;18.37;;;;;;;0.41;54.93;95174.91;1689214;83;20143;-51
2022/03/13 03:14:19;;;;;;;32.45;17.57;;;;;;;0.45;55.08;95171.66;1690203;84;21568;-50
2022/03/13 03:16:47;;;;;;;35.40;18.50;;;;;;;0.56;54.75;95183.37;1683977;84;21495;-51
2022/03/13 03:19:14;;;;;;;38.02;19.75;;;;;;;0.65;54.86;95176.30;1687171;83;20946;-53
2022/03/13 03:21:42;;;;;;;79.27;25.80;;;;;;;0.73;54.81;95175.19;1694407;83;20954;-52
2022/03/13 03:24:20;;;;;;;54.90;28.98;;;;;;;0.78;55.06;95175.63;1693203;83;21213;-52
2022/03/13 03:26:48;;;;;;;46.20;25.55;;;;;;;0.87;54.81;95178.81;1686032;83;21093;-51
2022/03/13 03:29:15;;;;;;;44.00;22.70;;;;;;;0.90;53.92;95184.04;1684976;84;21173;-52
2022/03/13 03:31:46;;;;;;;30.68;17.85;;;;;;;0.84;53.83;95179.57;1689280;84;21088;-51
2022/03/13 03:34:20;;;;;;;26.87;15.63;;;;;;;0.66;53.68;95180.00;1687976;83;21571;-53
2022/03/13 03:36:50;;;;;;;27.05;16.70;;;;;;;0.40;53.78;95174.71;1698948;84;21556;-52
2022/03/13 03:39:18;;;;;;;33.25;18.12;;;;;;;0.18;53.91;95177.56;1698630;83;21009;-52
2022/03/13 03:41:49;;;;;;;67.10;32.85;;;;;;;0.08;54.40;95181.70;1699823;82;20994;-52
2022/03/13 03:44:16;;;;;;;66.80;35.13;;;;;;;0.00;55.06;95174.67;1699117;84;21449;-52
2022/03/13 03:46:44;;;;;;;50.80;27.87;;;;;;;0.09;55.38;95180.59;1698718;83;20958;-50
2022/03/13 03:49:12;;;;;;;73.28;35.23;;;;;;;0.20;55.40;95179.34;1701235;83;20978;-52
2022/03/13 03:51:40;;;;;;;33.23;18.70;;;;;;;0.24;55.43;95174.16;1700478;83;21081;-52
2022/03/13 03:54:08;;;;;;;25.48;14.73;;;;;;;0.20;55.05;95176.05;1700030;83;21517;-52
2022/03/13 03:56:35;;;;;;;28.62;17.15;;;;;;;0.11;54.91;95172.88;1699050;84;21589;-52
2022/03/13 03:59:04;;;;;;;23.45;14.13;;;;;;;0.06;54.97;95161.02;1699401;83;20959;-53
2022/03/13 04:01:39;;;;;;;42.33;19.57;;;;;;;0.00;54.61;95157.69;1701658;84;20986;-52
2022/03/13 04:04:08;;;;;;;71.20;33.53;;;;;;;-0.09;54.72;95161.80;1696762;84;21017;-51
2022/03/13 04:06:40;;;;;;;71.80;34.25;;;;;;;-0.22;55.05;95152.41;1700227;84;21941;-52
2022/03/13 04:09:09;;;;;;;102.95;49.03;;;;;;;-0.32;55.26;95156.54;1700803;84;21017;-52
2022/03/13 04:11:36;;;;;;;89.15;45.43;;;;;;;-0.32;55.65;95150.34;1699620;83;21105;-52
2022/03/13 04:14:04;;;;;;;66.28;34.95;;;;;;;-0.29;56.28;95157.70;1701680;84;21454;-52
2022/03/13 04:16:32;;;;;;;70.72;36.65;;;;;;;-0.16;56.57;95158.47;1701325;83;20974;-52
2022/03/13 04:18:59;;;;;;;100.78;50.25;;;;;;;-0.06;56.95;95159.15;1700157;84;21534;-51
2022/03/13 04:21:28;;;;;;;114.28;53.38;;;;;;;0.05;57.15;95162.17;1698796;84;21018;-51
2022/03/13 04:23:55;;;;;;;76.02;37.50;;;;;;;0.11;57.19;95159.36;1700720;82;21068;-51
2022/03/13 04:26:24;;;;;;;58.83;31.85;;;;;;;0.16;57.35;95161.72;1700516;83;21010;-50
2022/03/13 04:28:52;;;;;;;59.60;32.50;;;;;;;0.15;57.36;95156.67;1701509;83;21442;-52
2022/03/13 04:31:19;;;;;;;55.03;30.55;;;;;;;0.14;57.54;95163.23;1698887;82;21415;-52
2022/03/13 04:33:49;;;;;;;64.35;33.02;;;;;;;0.20;57.62;95157.12;1699569;84;21089;-52
2022/03/13 04:36:23;;;;;;;69.12;34.48;;;;;;;0.20;57.44;95158.47;1701715;83;21573;-53
2022/03/13 04:38:52;;;;;;;64.80;33.80;;;;;;;0.25;57.37;95161.42;1701832;83;21061;-51
2022/03/13 04:41:20;;;;;;;66.37;35.00;;;;;;;0.32;57.14;95164.98;1699316;84;21501;-53
2022/03/13 04:43:49;;;;;;;70.97;36.85;;;;;;;0.33;57.09;95171.16;1701743;83;21178;-52
2022/03/13 04:46:17;;;;;;;67.35;36.60;;;;;;;0.33;56.95;95173.30;1698866;84;20978;-52
2022/03/13 04:48:44;;;;;;;87.62;45.73;;;;;;;0.31;57.28;95170.75;1701790;83;21129;-51
2022/03/13 04:51:11;;;;;;;79.53;40.78;;;;;;;0.35;57.58;95173.70;1699967;83;21485;-52
2022/03/13 04:53:38;;;;;;;75.78;38.67;;;;;;;0.47;57.38;95185.62;1699717;83;21588;-51
2022/03/13 04:56:05;;;;;;;62.98;33.08;;;;;;;0.51;56.95;95182.36;1696129;83;21533;-51
2022/03/13 04:58:34;;;;;;;61.13;32.28;;;;;;;0.54;56.92;95182.17;1694570;83;21750;-52
2022/03/13 05:01:02;;;;;;;56.08;30.02;;;;;;;0.61;56.66;95180.91;1701704;83;21469;-53
2022/03/13 05:03:33;;;;;;;59.73;29.10;;;;;;;0.58;56.61;95189.19;1701633;84;21497;-51
2022/03/13 05:06:05;;;;;;;54.63;27.00;;;;;;;0.52;56.84;95184.48;1707369;82;20966;-51
2022/03/13 05:08:30;;;;;;;60.67;31.05;;;;;;;0.50;57.07;95183.52;1716755;82;22283;-52
2022/03/13 05:10:59;;;;;;;67.85;35.05;;;;;;;0.49;57.24;95184.67;1710437;83;21579;-54
2022/03/13 05:13:27;;;;;;;93.52;41.88;;;;;;;0.54;57.18;95182.97;1716645;82;21093;-51
2022/03/13 05:15:54;;;;;;;77.20;36.17;;;;;;;0.68;56.85;95182.31;1720580;82;21022;-50
2022/03/13 05:18:21;;;;;;;72.32;35.95;;;;;;;0.72;56.50;95178.49;1719471;82;20984;-53
2022/03/13 05:20:50;;;;;;;85.22;43.90;;;;;;;0.78;56.61;95188.41;1712371;82;21258;-52
2022/03/13 05:23:19;;;;;;;93.27;48.80;;;;;;;0.85;56.72;95189.81;1719735;82;21018;-51
2022/03/13 05:25:46;;;;;;;103.25;51.02;;;;;;;0.86;56.87;95188.66;1720664;82;21100;-53
2022/03/13 05:28:14;;;;;;;100.20;46.58;;;;;;;0.92;56.85;95192.00;1717937;82;21466;-51
2022/03/13 05:30:46;;;;;;;136.25;66.12;;;;;;;0.93;56.83;95193.56;1716689;82;20967;-51
2022/03/13 05:33:13;;;;;;;102.85;49.15;;;;;;;1.01;56.71;95195.19;1722453;83;21153;-51
2022/03/13 05:35:42;;;;;;;84.65;41.92;;;;;;;1.08;56.37;95192.52;1717377;82;20963;-51
2022/03/13 05:38:09;;;;;;;81.78;39.92;;;;;;;1.10;56.33;95198.34;1723167;82;22205;-53
2022/03/13 05:40:36;;;;;;;96.30;43.33;;;;;;;1.07;56.40;95200.44;1714018;82;21070;-52
2022/03/13 05:43:04;;;;;;;91.40;45.92;;;;;;;1.08;56.61;95204.70;1716118;82;21009;-52
2022/03/13 05:45:32;;;;;;;134.72;58.23;;;;;;;1.11;56.76;95210.72;1715932;82;21247;-51
2022/03/13 05:48:08;;;;;;;136.30;59.55;;;;;;;1.24;56.64;95213.91;1717760;83;21038;-52
2022/03/13 05:50:36;;;;;;;120.20;52.83;;;;;;;1.28;56.35;95216.85;1711598;82;21033;-52
2022/03/13 05:53:04;;;;;;;94.25;42.80;;;;;;;1.34;56.45;95222.11;1716650;82;21050;-53
2022/03/13 05:55:32;;;;;;;93.10;46.37;;;;;;;1.41;56.06;95224.89;1713138;83;21489;-51
2022/03/13 05:58:00;;;;;;;103.20;54.40;;;;;;;1.32;55.83;95223.07;1719478;82;21292;-53
2022/03/13 06:00:31;;;;;;;122.90;56.92;;;;;;;1.28;55.95;95224.98;1718602;82;20991;-53
2022/03/13 06:02:57;;;;;;;142.03;65.65;;;;;;;1.35;55.74;95218.25;1720118;83;22547;-53
2022/03/13 06:05:25;;;;;;;121.57;60.75;;;;;;;1.35;55.52;95220.95;1709314;83;21554;-53
2022/03/13 06:07:52;;;;;;;126.22;62.25;;;;;;;1.45;55.59;95227.04;1656775;85;21096;-52
2022/03/13 06:10:20;;;;;;;136.52;66.72;;;;;;;1.51;55.48;95224.76;1656857;85;21620;-52
2022/03/13 06:12:47;;;;;;;112.95;57.80;;;;;;;1.59;55.34;95227.14;1661637;85;21072;-52
2022/03/13 06:15:16;;;;;;;120.02;56.68;;;;;;;1.74;54.81;95229.55;1655140;85;21009;-53
2022/03/13 06:17:46;;;;;;;132.43;63.23;;;;;;;1.87;54.49;95232.70;1655806;85;21045;-51
2022/03/13 06:20:15;;;;;;;126.95;63.85;;;;;;;1.85;53.99;95236.38;1654248;85;20993;-53
2022/03/13 06:22:47;;;;;;;122.22;59.77;;;;;;;1.81;54.34;95236.35;1653253;85;21170;-50
2022/03/13 06:25:16;;;;;;;;;;;;;;;1.94;54.16;95235.47;1654123;86;21052;-54
2022/03/13 06:27:43;;;;;;;108.83;52.55;;;;;;;2.04;53.89;95234.73;1653419;85;20137;-54
2022/03/13 06:30:13;;;;;;;110.05;55.20;;;;;;;2.09;53.48;95242.50;1645128;87;21068;-51
2022/03/13 06:32:48;;;;;;;89.17;45.67;;;;;;;2.20;52.93;95246.05;1645660;86;21021;-54
2022/03/13 06:35:17;;;;;;;88.10;42.78;;;;;;;2.22;52.27;95250.52;1646738;86;21161;-52
2022/03/13 06:37:45;;;;;;;106.40;41.18;;;;;;;2.15;51.47;95249.90;1652026;84;20978;-53
2022/03/13 06:40:14;;;;;;;62.50;34.90;;;;;;;2.12;51.53;95251.26;1682373;84;21069;-52
2022/03/13 06:42:42;;;;;;;67.50;36.20;;;;;;;2.15;51.81;95252.61;1670919;84;21625;-51
2022/03/13 06:45:12;;;;;;;67.22;33.28;;;;;;;2.20;51.79;95254.19;1719438;82;21458;-52
2022/03/13 06:47:41;;;;;;;46.28;27.07;;;;;;;2.34;51.33;95252.90;1734551;82;21797;-54
2022/03/13 06:50:10;;;;;;;54.30;32.38;;;;;;;2.42;50.95;95253.90;1690855;82;21002;-52
2022/03/13 06:52:37;;;;;;;57.95;29.80;;;;;;;2.48;50.21;95267.89;1719717;81;21501;-53
2022/03/13 06:55:06;;;;;;;51.50;29.72;;;;;;;2.52;50.00;95257.81;1700823;82;21489;-52
2022/03/13 06:57:34;;;;;;;45.12;25.97;;;;;;;2.60;49.94;95258.80;1717214;82;21567;-52
2022/03/13 07:00:02;;;;;;;44.05;23.95;;;;;;;2.64;49.45;95254.16;1698197;82;21064;-52
2022/03/13 07:02:29;;;;;;;40.88;23.73;;;;;;;2.59;49.15;95252.39;1709933;82;21053;-53
2022/03/13 07:04:57;;;;;;;42.27;23.67;;;;;;;2.61;48.73;95263.08;1701220;82;21044;-52
2022/03/13 07:07:24;;;;;;;37.70;22.58;;;;;;;2.64;48.54;95256.08;1719467;81;21604;-53
2022/03/13 07:09:52;;;;;;;45.28;25.30;;;;;;;2.74;48.66;95264.84;1700191;82;22381;-54
2022/03/13 07:12:20;;;;;;;45.03;27.42;;;;;;;2.87;48.16;95266.05;1704304;81;21157;-53
2022/03/13 07:14:48;;;;;;;50.10;29.30;;;;;;;2.90;48.02;95272.07;1700483;82;21132;-54
2022/03/13 07:17:16;;;;;;;56.90;27.17;;;;;;;2.96;47.97;95269.95;1700152;82;21025;-52
2022/03/13 07:19:44;;;;;;;38.75;23.80;;;;;;;3.15;47.58;95263.36;1696947;82;21095;-54
2022/03/13 07:22:13;;;;;;;44.35;25.05;;;;;;;3.31;46.79;95262.41;1694729;82;21066;-54
2022/03/13 07:24:42;;;;;;;40.67;22.50;;;;;;;3.36;46.47;95260.66;1710006;82;21112;-54
2022/03/13 07:27:10;;;;;;;41.60;20.40;;;;;;;3.44;45.86;95263.58;1715087;82;21825;-51
2022/03/13 07:29:38;;;;;;;51.42;28.60;;;;;;;3.50;45.45;95270.97;1707154;82;21005;-52
2022/03/13 07:32:07;;;;;;;52.08;26.07;;;;;;;3.48;44.75;95276.78;1703446;82;21023;-54
2022/03/13 07:34:34;;;;;;;43.63;25.75;;;;;;;3.45;45.10;95274.65;1715114;82;20951;-55
2022/03/13 07:37:02;;;;;;;31.97;17.82;;;;;;;3.40;44.53;95273.69;1716003;81;21215;-54
2022/03/13 07:39:30;;;;;;;33.83;18.67;;;;;;;3.32;44.26;95278.91;1702974;82;21106;-57
2022/03/13 07:41:57;;;;;;;33.33;20.25;;;;;;;3.36;44.33;95272.89;1688668;82;21026;-54
2022/03/13 07:44:26;;;;;;;36.23;18.80;;;;;;;3.48;44.14;95280.86;1709976;81;21118;-53
2022/03/13 07:46:54;;;;;;;26.57;16.17;;;;;;;3.62;43.99;95271.91;1721286;82;21020;-53
2022/03/13 07:49:22;;;;;;;24.43;15.70;;;;;;;3.81;43.58;95264.12;1691650;81;21241;-55
2022/03/13 07:51:51;;;;;;;21.35;13.95;;;;;;;4.02;43.68;95274.22;1718023;82;20974;-55
2022/03/13 07:54:20;;;;;;;27.67;15.48;;;;;;;4.25;42.50;95275.89;1704430;82;21520;-53
2022/03/13 07:56:47;;;;;;;19.17;11.88;;;;;;;4.20;42.16;95277.06;1719754;82;21253;-55
2022/03/13 07:59:14;;;;;;;15.58;10.80;;;;;;;4.15;42.56;95283.50;1707488;82;21099;-52
2022/03/13 08:01:42;;;;;;;20.97;10.72;;;;;;;4.17;41.79;95281.16;1700256;82;21090;-54
2022/03/13 08:04:10;;;;;;;20.43;13.75;;;;;;;4.18;41.26;95285.42;1704693;82;21067;-52
2022/03/13 08:06:39;;;;;;;25.48;13.72;;;;;;;4.16;41.42;95282.32;1711729;81;21171;-54
2022/03/13 08:09:08;;;;;;;20.08;12.23;;;;;;;4.14;42.10;95287.39;1683983;83;21021;-55
2022/03/13 08:11:38;;;;;;;22.32;11.05;;;;;;;4.17;42.02;95284.66;1706969;82;21588;-54
2022/03/13 08:14:07;;;;;;;16.62;10.68;;;;;;;4.25;41.97;95285.42;1688251;82;21703;-52
2022/03/13 08:16:35;;;;;;;15.70;10.70;;;;;;;4.29;41.76;95284.83;1700809;81;21024;-51
2022/03/13 08:19:03;;;;;;;19.05;11.57;;;;;;;4.33;42.23;95292.39;1697189;82;21197;-54
2022/03/13 08:21:32;;;;;;;18.82;12.03;;;;;;;4.43;42.18;95295.08;1702271;82;21036;-54
2022/03/13 08:24:00;;;;;;;17.42;11.45;;;;;;;4.49;41.85;95290.80;1697150;82;20992;-55
2022/03/13 08:26:27;;;;;;;15.32;11.25;;;;;;;4.56;41.91;95294.84;1712647;81;21255;-53
2022/03/13 08:28:54;;;;;;;17.07;10.25;;;;;;;4.63;40.84;95296.17;1700904;82;21160;-56
2022/03/13 08:31:22;;;;;;;22.13;10.50;;;;;;;4.65;41.31;95296.58;1680059;83;21084;-57
2022/03/13 08:33:50;;;;;;;14.85;11.15;;;;;;;4.72;40.81;95297.90;1677570;83;21031;-53
2022/03/13 08:36:17;;;;;;;18.92;11.20;;;;;;;4.75;40.74;95297.10;1649968;84;21066;-51
2022/03/13 08:38:44;;;;;;;14.33;10.75;;;;;;;4.79;41.07;95294.37;1642043;84;21160;-54
2022/03/13 08:41:11;;;;;;;17.45;11.18;;;;;;;4.81;41.33;95297.47;1635451;84;20996;-54
2022/03/13 08:43:40;;;;;;;17.00;11.95;;;;;;;4.76;40.84;95302.74;1663653;84;21525;-54
2022/03/13 08:46:12;;;;;;;16.97;12.15;;;;;;;4.72;40.71;95302.55;1662609;84;20995;-54
2022/03/13 08:48:40;;;;;;;19.27;12.25;;;;;;;4.76;41.24;95301.38;1640854;85;21092;-52
2022/03/13 08:51:08;;;;;;;19.48;13.43;;;;;;;4.88;40.91;95306.97;1671206;83;21164;-53
2022/03/13 08:53:37;;;;;;;16.07;11.57;;;;;;;4.97;41.13;95310.81;1646634;84;21010;-54
2022/03/13 08:56:05;;;;;;;17.12;12.25;;;;;;;5.03;40.71;95309.25;1653747;85;21455;-52
2022/03/13 08:58:33;;;;;;;23.15;12.55;;;;;;;5.07;40.70;95314.08;1652841;84;21553;-55
2022/03/13 09:01:00;;;;;;;26.77;15.78;;;;;;;5.11;40.29;95314.83;1649892;84;21088;-52
2022/03/13 09:03:28;;;;;;;15.75;12.43;;;;;;;5.12;40.65;95320.48;1651669;84;21143;-54
2022/03/13 09:05:56;;;;;;;20.45;13.85;;;;;;;5.18;40.83;95320.23;1647672;85;21378;-54
2022/03/13 09:08:24;;;;;;;16.93;10.82;;;;;;;5.16;40.16;95322.59;1643406;85;21038;-55
2022/03/13 09:10:52;;;;;;;46.85;27.60;;;;;;;5.15;39.94;95323.00;1648869;85;21101;-53
2022/03/13 09:13:21;;;;;;;28.17;19.32;;;;;;;5.14;39.73;95325.55;1647011;85;21530;-56
2022/03/13 09:15:49;;;;;;;24.92;15.65;;;;;;;5.22;39.88;95321.59;1646511;85;21056;-54
2022/03/13 09:18:16;;;;;;;58.17;32.42;;;;;;;5.33;39.96;95316.25;1644149;85;21049;-54
2022/03/13 09:20:44;;;;;;;25.08;15.08;;;;;;;5.37;39.63;95325.19;1641781;85;21041;-54
2022/03/13 09:23:11;;;;;;;19.52;13.20;;;;;;;5.34;39.53;95323.26;1673412;83;20996;-53
2022/03/13 09:25:39;;;;;;;16.05;11.65;;;;;;;5.38;39.98;95328.13;1654326;84;21514;-54
2022/03/13 09:28:07;;;;;;;17.10;12.13;;;;;;;5.44;39.94;95329.25;1653761;85;21465;-56
2022/03/13 09:30:36;;;;;;;16.17;11.63;;;;;;;5.38;39.70;95325.41;1643662;84;21057;-55
2022/03/13 09:33:04;;;;;;;13.18;10.03;;;;;;;5.28;39.89;95326.23;1666385;83;21077;-54
2022/03/13 09:35:32;;;;;;;24.07;15.78;;;;;;;5.18;39.55;95325.69;1687754;82;21002;-51
2022/03/13 09:37:59;;;;;;;15.13;10.68;;;;;;;5.14;40.39;95329.63;1693434;82;20994;-54
2022/03/13 09:40:27;;;;;;;15.43;10.68;;;;;;;5.29;40.39;95328.57;1702894;81;21095;-53
2022/03/13 09:42:55;;;;;;;15.63;11.22;;;;;;;5.40;40.21;95325.77;1702040;81;21016;-53
2022/03/13 09:45:23;;;;;;;17.55;11.55;;;;;;;5.52;39.44;95323.92;1705677;82;21011;-54
2022/03/13 09:47:51;;;;;;;13.65;10.60;;;;;;;5.58;39.73;95330.52;1696706;82;21540;-54
2022/03/13 09:50:19;;;;;;;16.02;12.10;;;;;;;5.58;39.39;95334.02;1700798;82;21022;-52
2022/03/13 09:52:46;;;;;;;24.15;11.55;;;;;;;5.60;40.19;95339.08;1703145;82;21311;-55
2022/03/13 09:55:14;;;;;;;14.20;11.45;;;;;;;5.62;39.73;95335.36;1699872;82;21112;-54
2022/03/13 09:57:42;;;;;;;17.87;10.80;;;;;;;5.68;40.29;95335.12;1714348;82;21093;-52
2022/03/13 10:00:17;;;;;;;17.73;11.57;;;;;;;5.80;40.35;95342.86;1710002;82;20999;-54
2022/03/13 10:02:45;;;;;;;18.65;12.40;;;;;;;5.89;40.35;95343.95;1712486;81;21026;-54
2022/03/13 10:05:17;;;;;;;16.23;11.38;;;;;;;5.95;39.69;95340.97;1704474;81;21466;-52
2022/03/13 10:08:02;;;;;;;14.63;11.68;;;;;;;6.05;39.33;95342.06;1696470;82;21014;-53
2022/03/13 10:10:48;;;;;;;14.85;10.50;;;;;;;6.13;39.43;95342.20;1723702;82;21023;-60
2022/03/13 10:13:38;;;;;;;16.10;10.93;;;;;;;6.16;39.71;95340.78;1700921;82;21088;-53
2022/03/13 10:16:12;;;;;;;15.60;10.60;;;;;;;6.22;38.74;95342.49;1699683;82;21018;-54
2022/03/13 10:18:41;;;;;;;15.93;11.00;;;;;;;6.17;39.34;95338.84;1706981;82;21258;-53
2022/03/13 10:21:17;;;;;;;13.75;11.00;;;;;;;6.18;39.88;95340.39;1706528;82;21149;-54
2022/03/13 10:23:47;;;;;;;18.25;12.60;;;;;;;6.26;39.50;95336.40;1705554;82;21033;-53
2022/03/13 10:26:18;;;;;;;17.17;12.20;;;;;;;6.39;39.40;95344.28;1707306;81;21005;-56
2022/03/13 10:28:46;;;;;;;18.98;11.80;;;;;;;6.65;39.46;95342.23;1697692;81;21563;-54
2022/03/13 10:31:17;;;;;;;19.35;15.05;;;;;;;6.88;38.88;95345.13;1702659;82;21367;-54
2022/03/13 10:33:52;;;;;;;16.85;12.68;;;;;;;7.12;38.62;95342.85;1702384;81;21037;-55
2022/03/13 10:36:31;;;;;;;19.37;12.50;;;;;;;7.27;37.56;95337.38;1695228;82;21128;-55
2022/03/13 10:38:56;;;;;;;16.17;11.53;;;;;;;7.40;36.74;95343.86;1720158;82;21081;-54
2022/03/13 10:41:44;;;;;;;15.60;10.70;;;;;;;7.37;35.94;95344.66;1708652;82;21098;-54
2022/03/13 10:44:14;;;;;;;14.33;12.03;;;;;;;7.35;36.66;95352.51;1699181;82;21874;-55
2022/03/13 10:46:42;;;;;;;16.45;11.43;;;;;;;7.49;36.21;95342.73;1710796;82;21080;-54
2022/03/13 10:49:09;;;;;;;17.00;10.15;;;;;;;8.05;36.83;95344.63;1703132;81;22051;-55
2022/03/13 10:51:45;;;;;;;14.87;10.13;;;;;;;8.55;36.07;95346.73;1707449;81;21017;-55
2022/03/13 10:54:34;;;;;;;15.28;9.23;;;;;;;9.10;35.81;95348.98;1700348;82;21118;-54
2022/03/13 10:57:13;;;;;;;14.35;8.93;;;;;;;9.58;34.37;95342.89;1703704;82;21975;-56
2022/03/13 10:59:42;;;;;;;10.72;8.75;;;;;;;9.84;33.19;95341.90;1694163;82;21078;-53
2022/03/13 11:02:22;;;;;;;15.40;10.32;;;;;;;9.64;32.95;95342.55;1695938;82;21054;-54
2022/03/13 11:04:53;;;;;;;17.48;9.45;;;;;;;9.58;33.79;95340.15;1693768;83;21057;-55
2022/03/13 11:07:20;;;;;;;10.60;8.80;;;;;;;9.60;33.44;95339.12;1704232;82;21056;-53
2022/03/13 11:09:47;;;;;;;19.30;10.13;;;;;;;9.51;33.86;95337.54;1710632;82;21473;-52
2022/03/13 11:12:20;;;;;;;15.78;10.88;;;;;;;9.31;33.50;95338.17;1723331;81;21057;-56
2022/03/13 11:14:51;;;;;;;13.48;10.28;;;;;;;9.07;34.00;95336.72;1702211;82;20992;-56
2022/03/13 11:17:25;;;;;;;14.40;11.43;;;;;;;8.93;34.43;95337.00;1723558;81;20994;-54
2022/03/13 11:20:00;;;;;;;16.55;10.28;;;;;;;9.07;33.69;95335.34;1699091;82;21185;-53
2022/03/13 11:22:26;;;;;;;15.10;9.50;;;;;;;9.43;34.01;95336.91;1710680;82;22304;-54
2022/03/13 11:25:02;;;;;;;13.95;9.45;;;;;;;9.96;33.51;95331.62;1696377;82;21040;-53
2022/03/13 11:27:31;;;;;;;14.43;9.28;;;;;;;10.57;33.11;95326.96;1699594;82;21054;-54
2022/03/13 11:29:59;;;;;;;13.28;9.40;;;;;;;11.09;32.14;95326.30;1711777;82;21034;-55
2022/03/13 11:32:46;;;;;;;20.88;12.05;;;;;;;11.56;31.42;95325.92;1702985;82;21057;-53